Weather at Austin Bergstrom International Airport

Public forecast

Using degrees Fahrenheit for public forecast. Weather courtesy of forecast.io.

Current aviation weather report (METAR) for Austin Bergstrom International Airport

2024/07/24 20:53 (retrieved 53 minutes ago)

KAUS 242053Z 10010KT 10SM FEW038 SCT085 BKN250 31/23 A3006 RMK AO2 SLP166 T03110228 57017

Aviation forecast (TAF) for Austin Bergstrom International Airport

2024/07/24 21:24 Ammendment (retrieved 22 minutes ago)

TAF AMD KAUS 242122Z 2421/2524 08007KT P6SM SCT030 BKN250 FM250000 09003KT P6SM SCT030 OVC070 FM250800 02003KT P6SM SCT007 OVC015 FM251800 06009KT P6SM VCSH BKN025